sensor_id;sensor_type;location;lat;lon;timestamp;P1;durP1;ratioP1;P2;durP2;ratioP2
47523;SDS011;33253;42.144;25.884;2023-10-19T00:01:47;9.20;;;3.78;;
47523;SDS011;33253;42.144;25.884;2023-10-19T00:04:13;10.32;;;4.38;;
47523;SDS011;33253;42.144;25.884;2023-10-19T00:06:39;14.18;;;6.00;;
47523;SDS011;33253;42.144;25.884;2023-10-19T00:09:05;20.55;;;6.13;;
47523;SDS011;33253;42.144;25.884;2023-10-19T00:11:36;20.05;;;7.00;;
47523;SDS011;33253;42.144;25.884;2023-10-19T00:14:05;24.05;;;7.60;;
47523;SDS011;33253;42.144;25.884;2023-10-19T00:16:40;23.08;;;7.38;;
47523;SDS011;33253;42.144;25.884;2023-10-19T00:19:09;21.47;;;7.07;;
47523;SDS011;33253;42.144;25.884;2023-10-19T00:21:35;27.17;;;8.77;;
47523;SDS011;33253;42.144;25.884;2023-10-19T00:24:15;25.85;;;8.30;;
47523;SDS011;33253;42.144;25.884;2023-10-19T00:26:42;29.67;;;9.32;;
47523;SDS011;33253;42.144;25.884;2023-10-19T00:29:09;25.15;;;7.28;;
47523;SDS011;33253;42.144;25.884;2023-10-19T00:31:55;18.98;;;7.20;;
47523;SDS011;33253;42.144;25.884;2023-10-19T00:34:25;23.23;;;7.03;;
47523;SDS011;33253;42.144;25.884;2023-10-19T00:36:51;22.17;;;7.07;;
47523;SDS011;33253;42.144;25.884;2023-10-19T00:39:17;25.55;;;7.05;;
47523;SDS011;33253;42.144;25.884;2023-10-19T00:41:52;16.15;;;6.93;;
47523;SDS011;33253;42.144;25.884;2023-10-19T00:44:23;15.25;;;7.45;;
47523;SDS011;33253;42.144;25.884;2023-10-19T00:47:09;17.42;;;6.32;;
47523;SDS011;33253;42.144;25.884;2023-10-19T00:49:38;10.60;;;4.97;;
47523;SDS011;33253;42.144;25.884;2023-10-19T00:52:04;8.07;;;4.97;;
47523;SDS011;33253;42.144;25.884;2023-10-19T00:54:45;9.38;;;4.95;;
47523;SDS011;33253;42.144;25.884;2023-10-19T00:57:14;9.73;;;4.82;;
47523;SDS011;33253;42.144;25.884;2023-10-19T00:59:44;8.30;;;4.30;;
47523;SDS011;33253;42.144;25.884;2023-10-19T01:02:16;7.55;;;4.03;;
47523;SDS011;33253;42.144;25.884;2023-10-19T01:04:46;8.80;;;3.90;;
47523;SDS011;33253;42.144;25.884;2023-10-19T01:07:31;10.57;;;4.30;;
47523;SDS011;33253;42.144;25.884;2023-10-19T01:10:07;7.97;;;3.70;;
47523;SDS011;33253;42.144;25.884;2023-10-19T01:12:34;7.90;;;2.70;;
47523;SDS011;33253;42.144;25.884;2023-10-19T01:15:13;4.95;;;3.03;;
47523;SDS011;33253;42.144;25.884;2023-10-19T01:20:19;6.05;;;2.83;;
47523;SDS011;33253;42.144;25.884;2023-10-19T01:22:51;6.50;;;3.42;;
47523;SDS011;33253;42.144;25.884;2023-10-19T01:25:46;9.68;;;3.88;;
47523;SDS011;33253;42.144;25.884;2023-10-19T01:30:47;16.77;;;4.95;;
47523;SDS011;33253;42.144;25.884;2023-10-19T01:33:16;15.93;;;4.70;;
47523;SDS011;33253;42.144;25.884;2023-10-19T01:35:44;8.68;;;3.72;;
47523;SDS011;33253;42.144;25.884;2023-10-19T01:38:29;10.25;;;4.00;;
47523;SDS011;33253;42.144;25.884;2023-10-19T01:41:02;6.70;;;3.75;;
47523;SDS011;33253;42.144;25.884;2023-10-19T01:43:41;15.68;;;5.40;;
47523;SDS011;33253;42.144;25.884;2023-10-19T01:46:08;15.55;;;5.47;;
47523;SDS011;33253;42.144;25.884;2023-10-19T01:51:10;11.23;;;4.38;;
47523;SDS011;33253;42.144;25.884;2023-10-19T01:53:36;14.63;;;4.90;;
47523;SDS011;33253;42.144;25.884;2023-10-19T01:56:13;17.10;;;6.45;;
47523;SDS011;33253;42.144;25.884;2023-10-19T01:58:40;22.05;;;5.20;;
47523;SDS011;33253;42.144;25.884;2023-10-19T02:01:08;14.02;;;5.13;;
47523;SDS011;33253;42.144;25.884;2023-10-19T02:03:35;11.93;;;4.65;;
47523;SDS011;33253;42.144;25.884;2023-10-19T02:06:01;15.40;;;5.40;;
47523;SDS011;33253;42.144;25.884;2023-10-19T02:08:49;16.30;;;6.40;;
47523;SDS011;33253;42.144;25.884;2023-10-19T02:11:21;16.42;;;5.68;;
47523;SDS011;33253;42.144;25.884;2023-10-19T02:13:48;14.25;;;5.45;;
47523;SDS011;33253;42.144;25.884;2023-10-19T02:16:18;21.45;;;6.05;;
47523;SDS011;33253;42.144;25.884;2023-10-19T02:18:48;11.88;;;6.40;;
47523;SDS011;33253;42.144;25.884;2023-10-19T02:21:15;15.57;;;6.32;;
47523;SDS011;33253;42.144;25.884;2023-10-19T02:23:47;18.50;;;6.32;;
47523;SDS011;33253;42.144;25.884;2023-10-19T02:26:18;12.48;;;6.47;;
47523;SDS011;33253;42.144;25.884;2023-10-19T02:28:55;11.77;;;5.72;;
47523;SDS011;33253;42.144;25.884;2023-10-19T02:31:22;17.27;;;6.70;;
47523;SDS011;33253;42.144;25.884;2023-10-19T02:33:50;22.05;;;5.43;;
47523;SDS011;33253;42.144;25.884;2023-10-19T02:36:25;12.10;;;5.85;;
47523;SDS011;33253;42.144;25.884;2023-10-19T02:38:55;12.82;;;5.55;;
47523;SDS011;33253;42.144;25.884;2023-10-19T02:41:24;13.52;;;6.85;;
47523;SDS011;33253;42.144;25.884;2023-10-19T02:43:52;11.50;;;5.63;;
47523;SDS011;33253;42.144;25.884;2023-10-19T02:46:30;16.98;;;6.00;;
47523;SDS011;33253;42.144;25.884;2023-10-19T02:49:06;32.97;;;7.28;;
47523;SDS011;33253;42.144;25.884;2023-10-19T02:51:36;20.15;;;6.18;;
47523;SDS011;33253;42.144;25.884;2023-10-19T02:54:03;16.88;;;5.97;;
47523;SDS011;33253;42.144;25.884;2023-10-19T02:56:30;28.92;;;7.00;;
47523;SDS011;33253;42.144;25.884;2023-10-19T02:58:56;31.20;;;6.80;;
47523;SDS011;33253;42.144;25.884;2023-10-19T03:01:28;12.70;;;5.93;;
47523;SDS011;33253;42.144;25.884;2023-10-19T03:03:57;18.80;;;5.38;;
47523;SDS011;33253;42.144;25.884;2023-10-19T03:06:26;21.43;;;5.57;;
47523;SDS011;33253;42.144;25.884;2023-10-19T03:08:59;10.32;;;4.47;;
47523;SDS011;33253;42.144;25.884;2023-10-19T03:11:41;7.00;;;4.13;;
47523;SDS011;33253;42.144;25.884;2023-10-19T03:14:09;11.30;;;5.55;;
47523;SDS011;33253;42.144;25.884;2023-10-19T03:16:36;23.27;;;5.40;;
47523;SDS011;33253;42.144;25.884;2023-10-19T03:19:02;14.60;;;5.85;;
47523;SDS011;33253;42.144;25.884;2023-10-19T03:21:29;26.15;;;6.60;;
47523;SDS011;33253;42.144;25.884;2023-10-19T03:23:59;12.40;;;5.60;;
47523;SDS011;33253;42.144;25.884;2023-10-19T03:26:37;10.95;;;6.68;;
47523;SDS011;33253;42.144;25.884;2023-10-19T03:29:05;14.82;;;6.28;;
47523;SDS011;33253;42.144;25.884;2023-10-19T03:31:37;11.77;;;5.78;;
47523;SDS011;33253;42.144;25.884;2023-10-19T03:34:09;12.75;;;6.00;;
47523;SDS011;33253;42.144;25.884;2023-10-19T03:36:35;18.17;;;6.07;;
47523;SDS011;33253;42.144;25.884;2023-10-19T03:39:01;16.88;;;6.55;;
47523;SDS011;33253;42.144;25.884;2023-10-19T03:41:36;10.25;;;5.07;;
47523;SDS011;33253;42.144;25.884;2023-10-19T03:44:04;11.55;;;5.78;;
47523;SDS011;33253;42.144;25.884;2023-10-19T03:46:30;13.20;;;5.32;;
47523;SDS011;33253;42.144;25.884;2023-10-19T03:48:59;12.88;;;5.15;;
47523;SDS011;33253;42.144;25.884;2023-10-19T03:51:36;20.73;;;5.43;;
47523;SDS011;33253;42.144;25.884;2023-10-19T03:56:48;7.15;;;5.28;;
47523;SDS011;33253;42.144;25.884;2023-10-19T03:59:14;12.75;;;6.00;;
47523;SDS011;33253;42.144;25.884;2023-10-19T04:01:41;11.40;;;6.00;;
47523;SDS011;33253;42.144;25.884;2023-10-19T04:04:08;16.08;;;6.38;;
47523;SDS011;33253;42.144;25.884;2023-10-19T04:06:35;12.43;;;5.82;;
47523;SDS011;33253;42.144;25.884;2023-10-19T04:09:00;12.40;;;6.30;;
47523;SDS011;33253;42.144;25.884;2023-10-19T04:11:26;9.55;;;5.72;;
47523;SDS011;33253;42.144;25.884;2023-10-19T04:13:59;10.15;;;6.05;;
47523;SDS011;33253;42.144;25.884;2023-10-19T04:16:28;12.40;;;6.88;;
47523;SDS011;33253;42.144;25.884;2023-10-19T04:18:55;14.73;;;6.68;;
47523;SDS011;33253;42.144;25.884;2023-10-19T04:21:20;16.10;;;7.10;;
47523;SDS011;33253;42.144;25.884;2023-10-19T04:23:46;18.45;;;6.80;;
47523;SDS011;33253;42.144;25.884;2023-10-19T04:26:12;15.65;;;7.78;;
47523;SDS011;33253;42.144;25.884;2023-10-19T04:28:40;14.65;;;7.20;;
47523;SDS011;33253;42.144;25.884;2023-10-19T04:31:15;14.95;;;7.40;;
47523;SDS011;33253;42.144;25.884;2023-10-19T04:33:42;13.00;;;7.38;;
47523;SDS011;33253;42.144;25.884;2023-10-19T04:36:10;18.97;;;7.30;;
47523;SDS011;33253;42.144;25.884;2023-10-19T04:38:39;11.98;;;7.10;;
47523;SDS011;33253;42.144;25.884;2023-10-19T04:41:09;22.95;;;7.28;;
47523;SDS011;33253;42.144;25.884;2023-10-19T04:43:36;29.20;;;8.25;;
47523;SDS011;33253;42.144;25.884;2023-10-19T04:46:06;31.00;;;8.70;;
47523;SDS011;33253;42.144;25.884;2023-10-19T04:48:36;25.58;;;7.68;;
47523;SDS011;33253;42.144;25.884;2023-10-19T04:51:07;27.92;;;8.10;;
47523;SDS011;33253;42.144;25.884;2023-10-19T04:53:34;16.40;;;7.63;;
47523;SDS011;33253;42.144;25.884;2023-10-19T04:56:02;17.83;;;9.00;;
47523;SDS011;33253;42.144;25.884;2023-10-19T04:58:29;17.63;;;8.80;;
47523;SDS011;33253;42.144;25.884;2023-10-19T05:00:55;36.35;;;9.07;;
47523;SDS011;33253;42.144;25.884;2023-10-19T05:03:23;37.05;;;17.08;;
47523;SDS011;33253;42.144;25.884;2023-10-19T05:05:49;106.32;;;47.38;;
47523;SDS011;33253;42.144;25.884;2023-10-19T05:08:14;34.42;;;12.02;;
47523;SDS011;33253;42.144;25.884;2023-10-19T05:10:40;25.33;;;12.35;;
47523;SDS011;33253;42.144;25.884;2023-10-19T05:13:07;39.70;;;15.07;;
47523;SDS011;33253;42.144;25.884;2023-10-19T05:15:32;20.77;;;10.32;;
47523;SDS011;33253;42.144;25.884;2023-10-19T05:17:59;21.50;;;10.55;;
47523;SDS011;33253;42.144;25.884;2023-10-19T05:20:25;20.52;;;9.10;;
47523;SDS011;33253;42.144;25.884;2023-10-19T05:22:51;17.58;;;9.73;;
47523;SDS011;33253;42.144;25.884;2023-10-19T05:25:16;17.60;;;10.25;;
47523;SDS011;33253;42.144;25.884;2023-10-19T05:27:42;24.55;;;10.27;;
47523;SDS011;33253;42.144;25.884;2023-10-19T05:30:07;21.48;;;9.57;;
47523;SDS011;33253;42.144;25.884;2023-10-19T05:32:36;14.63;;;9.13;;
47523;SDS011;33253;42.144;25.884;2023-10-19T05:35:01;23.85;;;10.52;;
47523;SDS011;33253;42.144;25.884;2023-10-19T05:37:29;24.40;;;11.45;;
47523;SDS011;33253;42.144;25.884;2023-10-19T05:39:55;23.42;;;10.57;;
47523;SDS011;33253;42.144;25.884;2023-10-19T05:42:21;26.20;;;10.80;;
47523;SDS011;33253;42.144;25.884;2023-10-19T05:44:47;26.63;;;10.98;;
47523;SDS011;33253;42.144;25.884;2023-10-19T05:47:12;23.02;;;11.48;;
47523;SDS011;33253;42.144;25.884;2023-10-19T05:49:38;24.70;;;10.30;;
47523;SDS011;33253;42.144;25.884;2023-10-19T05:52:03;25.38;;;12.27;;
47523;SDS011;33253;42.144;25.884;2023-10-19T05:54:29;31.38;;;14.05;;
47523;SDS011;33253;42.144;25.884;2023-10-19T05:56:54;24.25;;;12.18;;
47523;SDS011;33253;42.144;25.884;2023-10-19T05:59:21;27.65;;;12.85;;
47523;SDS011;33253;42.144;25.884;2023-10-19T06:01:48;31.38;;;12.57;;
47523;SDS011;33253;42.144;25.884;2023-10-19T06:04:14;26.58;;;11.48;;
47523;SDS011;33253;42.144;25.884;2023-10-19T06:06:40;25.63;;;13.57;;
47523;SDS011;33253;42.144;25.884;2023-10-19T06:09:05;29.33;;;13.02;;
47523;SDS011;33253;42.144;25.884;2023-10-19T06:11:33;28.40;;;14.27;;
47523;SDS011;33253;42.144;25.884;2023-10-19T06:14:02;22.40;;;12.60;;
47523;SDS011;33253;42.144;25.884;2023-10-19T06:16:32;24.63;;;12.63;;
47523;SDS011;33253;42.144;25.884;2023-10-19T06:18:58;25.20;;;14.73;;
47523;SDS011;33253;42.144;25.884;2023-10-19T06:21:24;28.55;;;13.73;;
47523;SDS011;33253;42.144;25.884;2023-10-19T06:23:49;26.23;;;13.60;;
47523;SDS011;33253;42.144;25.884;2023-10-19T06:26:15;26.67;;;12.43;;
47523;SDS011;33253;42.144;25.884;2023-10-19T06:28:41;22.75;;;13.52;;
47523;SDS011;33253;42.144;25.884;2023-10-19T06:31:06;31.08;;;13.77;;
47523;SDS011;33253;42.144;25.884;2023-10-19T06:33:32;25.60;;;14.00;;
47523;SDS011;33253;42.144;25.884;2023-10-19T06:35:58;27.55;;;14.15;;
47523;SDS011;33253;42.144;25.884;2023-10-19T06:38:25;29.88;;;15.27;;
47523;SDS011;33253;42.144;25.884;2023-10-19T06:40:51;31.83;;;15.10;;
47523;SDS011;33253;42.144;25.884;2023-10-19T06:43:16;30.55;;;15.15;;
47523;SDS011;33253;42.144;25.884;2023-10-19T06:45:43;32.22;;;14.90;;
47523;SDS011;33253;42.144;25.884;2023-10-19T06:48:09;34.13;;;17.00;;
47523;SDS011;33253;42.144;25.884;2023-10-19T06:50:36;34.25;;;16.67;;
47523;SDS011;33253;42.144;25.884;2023-10-19T06:53:02;34.85;;;18.52;;
47523;SDS011;33253;42.144;25.884;2023-10-19T06:55:30;31.67;;;17.70;;
47523;SDS011;33253;42.144;25.884;2023-10-19T06:57:56;38.92;;;19.30;;
47523;SDS011;33253;42.144;25.884;2023-10-19T07:00:22;35.45;;;17.25;;
47523;SDS011;33253;42.144;25.884;2023-10-19T07:02:52;33.42;;;18.60;;
47523;SDS011;33253;42.144;25.884;2023-10-19T07:05:20;36.17;;;19.10;;
47523;SDS011;33253;42.144;25.884;2023-10-19T07:07:47;35.10;;;20.05;;
47523;SDS011;33253;42.144;25.884;2023-10-19T07:10:24;32.33;;;19.98;;
47523;SDS011;33253;42.144;25.884;2023-10-19T07:12:52;37.05;;;19.23;;
47523;SDS011;33253;42.144;25.884;2023-10-19T07:15:19;34.20;;;19.85;;
47523;SDS011;33253;42.144;25.884;2023-10-19T07:17:50;39.03;;;19.67;;
47523;SDS011;33253;42.144;25.884;2023-10-19T07:20:19;35.47;;;19.33;;
47523;SDS011;33253;42.144;25.884;2023-10-19T07:22:52;41.47;;;21.83;;
47523;SDS011;33253;42.144;25.884;2023-10-19T07:25:19;43.35;;;21.83;;
47523;SDS011;33253;42.144;25.884;2023-10-19T07:27:48;41.60;;;22.23;;
47523;SDS011;33253;42.144;25.884;2023-10-19T07:30:15;35.08;;;20.70;;
47523;SDS011;33253;42.144;25.884;2023-10-19T07:32:45;45.08;;;24.27;;
47523;SDS011;33253;42.144;25.884;2023-10-19T07:35:14;50.97;;;22.17;;
47523;SDS011;33253;42.144;25.884;2023-10-19T07:37:39;53.17;;;24.35;;
47523;SDS011;33253;42.144;25.884;2023-10-19T07:40:05;53.45;;;23.25;;
47523;SDS011;33253;42.144;25.884;2023-10-19T07:42:31;50.00;;;25.80;;
47523;SDS011;33253;42.144;25.884;2023-10-19T07:44:58;53.40;;;26.27;;
47523;SDS011;33253;42.144;25.884;2023-10-19T07:47:24;62.88;;;28.45;;
47523;SDS011;33253;42.144;25.884;2023-10-19T07:49:50;71.50;;;31.02;;
47523;SDS011;33253;42.144;25.884;2023-10-19T07:52:17;69.80;;;30.63;;
47523;SDS011;33253;42.144;25.884;2023-10-19T07:54:42;65.05;;;30.63;;
47523;SDS011;33253;42.144;25.884;2023-10-19T07:57:08;72.15;;;30.95;;
47523;SDS011;33253;42.144;25.884;2023-10-19T07:59:33;70.28;;;32.22;;
47523;SDS011;33253;42.144;25.884;2023-10-19T08:02:02;70.10;;;33.60;;
47523;SDS011;33253;42.144;25.884;2023-10-19T08:04:28;60.00;;;30.60;;
47523;SDS011;33253;42.144;25.884;2023-10-19T08:06:54;65.95;;;30.90;;
47523;SDS011;33253;42.144;25.884;2023-10-19T08:09:23;73.32;;;32.70;;
47523;SDS011;33253;42.144;25.884;2023-10-19T08:11:50;70.18;;;33.80;;
47523;SDS011;33253;42.144;25.884;2023-10-19T08:14:20;73.25;;;33.08;;
47523;SDS011;33253;42.144;25.884;2023-10-19T08:16:47;74.75;;;34.47;;
47523;SDS011;33253;42.144;25.884;2023-10-19T08:19:13;80.97;;;36.95;;
47523;SDS011;33253;42.144;25.884;2023-10-19T08:21:38;76.75;;;36.25;;
47523;SDS011;33253;42.144;25.884;2023-10-19T08:24:04;82.25;;;37.35;;
47523;SDS011;33253;42.144;25.884;2023-10-19T08:26:30;84.50;;;36.20;;
47523;SDS011;33253;42.144;25.884;2023-10-19T08:28:56;79.65;;;35.67;;
47523;SDS011;33253;42.144;25.884;2023-10-19T08:31:24;81.53;;;34.55;;
47523;SDS011;33253;42.144;25.884;2023-10-19T08:33:49;86.30;;;36.78;;
47523;SDS011;33253;42.144;25.884;2023-10-19T08:36:18;89.28;;;40.60;;
47523;SDS011;33253;42.144;25.884;2023-10-19T08:38:45;82.88;;;37.13;;
47523;SDS011;33253;42.144;25.884;2023-10-19T08:41:11;86.07;;;37.80;;
47523;SDS011;33253;42.144;25.884;2023-10-19T08:43:38;97.65;;;36.80;;
47523;SDS011;33253;42.144;25.884;2023-10-19T08:46:05;90.45;;;36.83;;
47523;SDS011;33253;42.144;25.884;2023-10-19T08:48:34;85.90;;;33.42;;
47523;SDS011;33253;42.144;25.884;2023-10-19T08:51:02;104.35;;;38.70;;
47523;SDS011;33253;42.144;25.884;2023-10-19T08:53:30;98.45;;;34.92;;
47523;SDS011;33253;42.144;25.884;2023-10-19T08:55:57;94.75;;;35.97;;
47523;SDS011;33253;42.144;25.884;2023-10-19T08:58:25;92.38;;;38.05;;
47523;SDS011;33253;42.144;25.884;2023-10-19T09:00:52;97.75;;;37.47;;
47523;SDS011;33253;42.144;25.884;2023-10-19T09:03:21;92.82;;;35.00;;
47523;SDS011;33253;42.144;25.884;2023-10-19T09:05:47;83.13;;;33.42;;
47523;SDS011;33253;42.144;25.884;2023-10-19T09:08:19;93.53;;;35.03;;
47523;SDS011;33253;42.144;25.884;2023-10-19T09:10:47;74.57;;;26.02;;
47523;SDS011;33253;42.144;25.884;2023-10-19T09:13:14;75.60;;;26.98;;
47523;SDS011;33253;42.144;25.884;2023-10-19T09:15:48;75.57;;;29.80;;
47523;SDS011;33253;42.144;25.884;2023-10-19T09:18:20;83.93;;;28.30;;
47523;SDS011;33253;42.144;25.884;2023-10-19T09:20:48;64.82;;;23.77;;
47523;SDS011;33253;42.144;25.884;2023-10-19T09:23:21;63.17;;;20.80;;
47523;SDS011;33253;42.144;25.884;2023-10-19T09:25:50;57.97;;;21.58;;
47523;SDS011;33253;42.144;25.884;2023-10-19T09:28:19;56.15;;;22.98;;
47523;SDS011;33253;42.144;25.884;2023-10-19T09:30:45;39.58;;;16.40;;
47523;SDS011;33253;42.144;25.884;2023-10-19T09:33:12;37.42;;;16.20;;
47523;SDS011;33253;42.144;25.884;2023-10-19T09:35:40;31.63;;;16.50;;
47523;SDS011;33253;42.144;25.884;2023-10-19T09:38:08;35.45;;;17.95;;
47523;SDS011;33253;42.144;25.884;2023-10-19T09:40:34;28.67;;;16.08;;
47523;SDS011;33253;42.144;25.884;2023-10-19T09:43:02;27.25;;;13.52;;
47523;SDS011;33253;42.144;25.884;2023-10-19T09:45:32;25.58;;;15.00;;
47523;SDS011;33253;42.144;25.884;2023-10-19T09:48:06;25.00;;;15.77;;
47523;SDS011;33253;42.144;25.884;2023-10-19T09:50:33;27.60;;;15.32;;
47523;SDS011;33253;42.144;25.884;2023-10-19T09:52:59;27.35;;;13.50;;
47523;SDS011;33253;42.144;25.884;2023-10-19T09:55:37;18.35;;;12.82;;
47523;SDS011;33253;42.144;25.884;2023-10-19T09:58:12;24.98;;;14.38;;
47523;SDS011;33253;42.144;25.884;2023-10-19T10:00:47;17.35;;;12.00;;
47523;SDS011;33253;42.144;25.884;2023-10-19T10:06:28;15.82;;;10.15;;
47523;SDS011;33253;42.144;25.884;2023-10-19T10:08:55;12.98;;;9.45;;
47523;SDS011;33253;42.144;25.884;2023-10-19T10:11:24;14.52;;;9.25;;
47523;SDS011;33253;42.144;25.884;2023-10-19T10:13:57;11.05;;;8.88;;
47523;SDS011;33253;42.144;25.884;2023-10-19T10:16:24;13.70;;;9.45;;
47523;SDS011;33253;42.144;25.884;2023-10-19T10:18:53;12.40;;;9.60;;
47523;SDS011;33253;42.144;25.884;2023-10-19T10:21:24;10.23;;;8.38;;
47523;SDS011;33253;42.144;25.884;2023-10-19T10:23:56;14.13;;;9.48;;
47523;SDS011;33253;42.144;25.884;2023-10-19T10:26:29;10.65;;;7.63;;
47523;SDS011;33253;42.144;25.884;2023-10-19T10:29:15;10.02;;;7.95;;
47523;SDS011;33253;42.144;25.884;2023-10-19T10:31:48;8.43;;;6.47;;
47523;SDS011;33253;42.144;25.884;2023-10-19T10:37:03;10.40;;;6.72;;
47523;SDS011;33253;42.144;25.884;2023-10-19T10:39:31;8.15;;;6.45;;
47523;SDS011;33253;42.144;25.884;2023-10-19T10:42:02;9.23;;;6.82;;
47523;SDS011;33253;42.144;25.884;2023-10-19T10:47:03;8.38;;;5.80;;
47523;SDS011;33253;42.144;25.884;2023-10-19T10:49:31;9.15;;;5.88;;
47523;SDS011;33253;42.144;25.884;2023-10-19T10:51:57;7.55;;;5.72;;
47523;SDS011;33253;42.144;25.884;2023-10-19T10:54:22;8.55;;;6.15;;
47523;SDS011;33253;42.144;25.884;2023-10-19T10:56:49;9.57;;;5.13;;
47523;SDS011;33253;42.144;25.884;2023-10-19T10:59:14;7.65;;;5.90;;
47523;SDS011;33253;42.144;25.884;2023-10-19T11:01:40;6.50;;;5.13;;
47523;SDS011;33253;42.144;25.884;2023-10-19T11:04:11;7.97;;;4.90;;
47523;SDS011;33253;42.144;25.884;2023-10-19T11:06:53;6.72;;;4.65;;
47523;SDS011;33253;42.144;25.884;2023-10-19T11:09:22;5.80;;;4.43;;
47523;SDS011;33253;42.144;25.884;2023-10-19T11:11:49;5.43;;;4.40;;
47523;SDS011;33253;42.144;25.884;2023-10-19T11:14:17;7.40;;;5.22;;
47523;SDS011;33253;42.144;25.884;2023-10-19T11:16:42;7.70;;;5.25;;
47523;SDS011;33253;42.144;25.884;2023-10-19T11:19:08;6.47;;;4.78;;
47523;SDS011;33253;42.144;25.884;2023-10-19T11:21:35;6.63;;;5.18;;
47523;SDS011;33253;42.144;25.884;2023-10-19T11:24:01;7.85;;;5.60;;
47523;SDS011;33253;42.144;25.884;2023-10-19T11:26:27;5.65;;;4.72;;
47523;SDS011;33253;42.144;25.884;2023-10-19T11:28:59;6.28;;;4.55;;
47523;SDS011;33253;42.144;25.884;2023-10-19T11:31:26;7.03;;;5.05;;
47523;SDS011;33253;42.144;25.884;2023-10-19T11:33:53;6.78;;;4.53;;
47523;SDS011;33253;42.144;25.884;2023-10-19T11:36:24;7.28;;;5.30;;
47523;SDS011;33253;42.144;25.884;2023-10-19T11:38:51;7.22;;;5.25;;
47523;SDS011;33253;42.144;25.884;2023-10-19T11:41:17;6.13;;;4.72;;
47523;SDS011;33253;42.144;25.884;2023-10-19T11:43:47;6.72;;;5.10;;
47523;SDS011;33253;42.144;25.884;2023-10-19T11:46:13;7.30;;;4.93;;
47523;SDS011;33253;42.144;25.884;2023-10-19T11:48:40;7.40;;;4.47;;
47523;SDS011;33253;42.144;25.884;2023-10-19T11:51:07;7.18;;;5.25;;
47523;SDS011;33253;42.144;25.884;2023-10-19T11:53:36;10.45;;;5.43;;
47523;SDS011;33253;42.144;25.884;2023-10-19T11:56:04;12.38;;;5.85;;
47523;SDS011;33253;42.144;25.884;2023-10-19T11:58:33;6.93;;;5.07;;
47523;SDS011;33253;42.144;25.884;2023-10-19T12:01:03;9.50;;;6.32;;
47523;SDS011;33253;42.144;25.884;2023-10-19T12:03:39;10.98;;;6.10;;
47523;SDS011;33253;42.144;25.884;2023-10-19T12:06:08;9.30;;;5.95;;
47523;SDS011;33253;42.144;25.884;2023-10-19T12:08:35;10.02;;;5.25;;
47523;SDS011;33253;42.144;25.884;2023-10-19T12:11:01;8.23;;;5.80;;
47523;SDS011;33253;42.144;25.884;2023-10-19T12:13:29;5.53;;;4.47;;
47523;SDS011;33253;42.144;25.884;2023-10-19T12:15:56;5.05;;;3.72;;
47523;SDS011;33253;42.144;25.884;2023-10-19T12:18:22;6.93;;;4.13;;
47523;SDS011;33253;42.144;25.884;2023-10-19T12:20:50;5.82;;;3.90;;
47523;SDS011;33253;42.144;25.884;2023-10-19T12:23:21;5.55;;;3.90;;
47523;SDS011;33253;42.144;25.884;2023-10-19T12:25:48;6.22;;;4.10;;
47523;SDS011;33253;42.144;25.884;2023-10-19T12:28:14;5.50;;;4.18;;
47523;SDS011;33253;42.144;25.884;2023-10-19T12:30:40;5.03;;;4.25;;
47523;SDS011;33253;42.144;25.884;2023-10-19T12:33:06;6.85;;;4.75;;
47523;SDS011;33253;42.144;25.884;2023-10-19T12:35:38;5.50;;;4.60;;
47523;SDS011;33253;42.144;25.884;2023-10-19T12:38:11;6.20;;;4.32;;
47523;SDS011;33253;42.144;25.884;2023-10-19T12:40:44;6.20;;;4.60;;
47523;SDS011;33253;42.144;25.884;2023-10-19T12:43:11;6.72;;;4.90;;
47523;SDS011;33253;42.144;25.884;2023-10-19T12:45:38;8.27;;;3.80;;
47523;SDS011;33253;42.144;25.884;2023-10-19T12:48:05;6.32;;;3.80;;
47523;SDS011;33253;42.144;25.884;2023-10-19T12:50:33;6.03;;;4.22;;
47523;SDS011;33253;42.144;25.884;2023-10-19T12:52:59;6.65;;;4.68;;
47523;SDS011;33253;42.144;25.884;2023-10-19T12:55:25;6.00;;;4.50;;
47523;SDS011;33253;42.144;25.884;2023-10-19T12:57:56;5.72;;;4.40;;
47523;SDS011;33253;42.144;25.884;2023-10-19T13:00:22;6.00;;;4.32;;
47523;SDS011;33253;42.144;25.884;2023-10-19T13:02:49;6.15;;;4.43;;
47523;SDS011;33253;42.144;25.884;2023-10-19T13:05:15;7.20;;;4.10;;
47523;SDS011;33253;42.144;25.884;2023-10-19T13:07:43;5.53;;;3.45;;
47523;SDS011;33253;42.144;25.884;2023-10-19T13:10:09;4.57;;;3.70;;
47523;SDS011;33253;42.144;25.884;2023-10-19T13:12:36;5.80;;;3.92;;
47523;SDS011;33253;42.144;25.884;2023-10-19T13:15:03;6.18;;;4.00;;
47523;SDS011;33253;42.144;25.884;2023-10-19T13:19:57;6.53;;;3.78;;
47523;SDS011;33253;42.144;25.884;2023-10-19T13:22:26;6.15;;;4.00;;
47523;SDS011;33253;42.144;25.884;2023-10-19T13:24:52;4.30;;;3.30;;
47523;SDS011;33253;42.144;25.884;2023-10-19T13:27:17;4.20;;;3.03;;
47523;SDS011;33253;42.144;25.884;2023-10-19T13:29:44;5.35;;;3.60;;
47523;SDS011;33253;42.144;25.884;2023-10-19T13:32:12;5.60;;;3.70;;
47523;SDS011;33253;42.144;25.884;2023-10-19T13:34:37;4.10;;;2.90;;
47523;SDS011;33253;42.144;25.884;2023-10-19T13:37:05;4.50;;;3.70;;
47523;SDS011;33253;42.144;25.884;2023-10-19T13:39:33;5.65;;;3.55;;
47523;SDS011;33253;42.144;25.884;2023-10-19T13:41:58;5.07;;;3.55;;
47523;SDS011;33253;42.144;25.884;2023-10-19T13:44:24;4.97;;;3.65;;
47523;SDS011;33253;42.144;25.884;2023-10-19T13:46:51;4.50;;;3.28;;
47523;SDS011;33253;42.144;25.884;2023-10-19T13:49:19;5.00;;;3.58;;
47523;SDS011;33253;42.144;25.884;2023-10-19T13:51:47;4.80;;;3.57;;
47523;SDS011;33253;42.144;25.884;2023-10-19T13:54:13;4.55;;;3.40;;
47523;SDS011;33253;42.144;25.884;2023-10-19T13:56:39;4.82;;;3.55;;
47523;SDS011;33253;42.144;25.884;2023-10-19T13:59:04;5.43;;;3.70;;
47523;SDS011;33253;42.144;25.884;2023-10-19T14:01:30;5.90;;;3.30;;
47523;SDS011;33253;42.144;25.884;2023-10-19T14:06:43;6.03;;;3.70;;
47523;SDS011;33253;42.144;25.884;2023-10-19T14:09:09;8.70;;;7.35;;
47523;SDS011;33253;42.144;25.884;2023-10-19T14:11:38;7.88;;;3.65;;
47523;SDS011;33253;42.144;25.884;2023-10-19T14:14:03;4.35;;;3.20;;
47523;SDS011;33253;42.144;25.884;2023-10-19T14:16:29;16.52;;;15.02;;
47523;SDS011;33253;42.144;25.884;2023-10-19T14:18:56;5.53;;;4.95;;
47523;SDS011;33253;42.144;25.884;2023-10-19T14:21:21;4.18;;;3.17;;
47523;SDS011;33253;42.144;25.884;2023-10-19T14:23:51;4.97;;;3.22;;
47523;SDS011;33253;42.144;25.884;2023-10-19T14:26:18;5.88;;;3.40;;
47523;SDS011;33253;42.144;25.884;2023-10-19T14:28:44;5.05;;;3.42;;
47523;SDS011;33253;42.144;25.884;2023-10-19T14:31:09;4.05;;;3.20;;
47523;SDS011;33253;42.144;25.884;2023-10-19T14:33:38;7.82;;;3.50;;
47523;SDS011;33253;42.144;25.884;2023-10-19T14:36:04;5.32;;;3.03;;
47523;SDS011;33253;42.144;25.884;2023-10-19T14:38:30;4.63;;;3.53;;
47523;SDS011;33253;42.144;25.884;2023-10-19T14:40:56;5.28;;;3.40;;
47523;SDS011;33253;42.144;25.884;2023-10-19T14:43:22;7.05;;;2.90;;
47523;SDS011;33253;42.144;25.884;2023-10-19T14:45:48;5.18;;;3.13;;
47523;SDS011;33253;42.144;25.884;2023-10-19T14:48:13;4.93;;;3.58;;
47523;SDS011;33253;42.144;25.884;2023-10-19T14:50:39;4.25;;;3.38;;
47523;SDS011;33253;42.144;25.884;2023-10-19T14:53:06;4.45;;;3.10;;